Time;durP1;ratioP1;P1;durP2;ratioP2;P2;SDS_P1;SDS_P2;PMS_P1;PMS_P2;Temp;Humidity;BMP_temperature;BMP_pressure;BME280_temperature;BME280_humidity;BME280_pressure;Samples;Min_cycle;Max_cycle;Signal;HPM_P1;HPM_P2
2021/07/23 00:00:16;;;;;;;8.68;6.57;;;;;;;;;;5016306;28;20021;-72
2021/07/23 00:02:42;;;;;;;9.00;6.72;;;;;;;;;;5021139;28;20385;-73
2021/07/23 00:05:09;;;;;;;8.60;7.00;;;;;;;;;;5025507;28;20163;-72
2021/07/23 00:07:35;;;;;;;9.10;6.63;;;;;;;;;;5019290;28;20034;-73
2021/07/23 00:10:02;;;;;;;6.88;6.18;;;;;;;;;;5022344;28;20022;-72
2021/07/23 00:12:28;;;;;;;9.25;6.53;;;;;;;;;;5014539;28;20036;-72
2021/07/23 00:14:54;;;;;;;9.98;7.15;;;;;;;;;;5022664;28;20027;-72
2021/07/23 00:17:20;;;;;;;10.63;6.93;;;;;;;;;;5024718;28;20074;-72
2021/07/23 00:19:46;;;;;;;11.88;6.80;;;;;;;;;;5027470;28;20041;-72
2021/07/23 00:22:12;;;;;;;10.50;6.63;;;;;;;;;;5022191;28;20021;-72
2021/07/23 00:24:38;;;;;;;8.90;6.60;;;;;;;;;;5027235;28;20029;-72
2021/07/23 00:27:05;;;;;;;11.43;7.38;;;;;;;;;;5027160;28;20063;-73
2021/07/23 00:29:31;;;;;;;9.52;6.82;;;;;;;;;;5019946;28;20389;-72
2021/07/23 00:31:58;;;;;;;9.23;6.28;;;;;;;;;;5026345;28;20052;-71
2021/07/23 00:34:24;;;;;;;10.90;6.75;;;;;;;;;;5018573;28;20707;-73
2021/07/23 00:36:50;;;;;;;9.10;7.40;;;;;;;;;;5027504;28;20034;-71
2021/07/23 00:39:16;;;;;;;8.93;6.40;;;;;;;;;;5018101;28;20025;-73
2021/07/23 00:41:42;;;;;;;10.73;6.95;;;;;;;;;;5026079;28;20076;-72
2021/07/23 00:44:09;;;;;;;10.20;6.60;;;;;;;;;;5014592;28;20040;-73
2021/07/23 00:46:36;;;;;;;10.20;6.93;;;;;;;;;;5017389;28;20416;-72
2021/07/23 00:49:02;;;;;;;7.85;6.63;;;;;;;;;;5023503;28;20025;-72
2021/07/23 00:51:28;;;;;;;9.00;6.97;;;;;;;;;;5018169;28;20510;-71
2021/07/23 00:53:56;;;;;;;9.82;6.82;;;;;;;;;;5016037;28;20030;-71
2021/07/23 00:56:22;;;;;;;10.18;6.65;;;;;;;;;;5016979;28;20477;-73
2021/07/23 00:58:48;;;;;;;9.50;6.93;;;;;;;;;;5017371;28;20032;-71
2021/07/23 01:01:14;;;;;;;13.90;6.85;;;;;;;;;;5017027;28;20021;-72
2021/07/23 01:03:41;;;;;;;7.95;6.35;;;;;;;;;;5024045;28;20022;-72
2021/07/23 01:06:07;;;;;;;8.55;6.20;;;;;;;;;;5016130;28;20517;-71
2021/07/23 01:08:33;;;;;;;9.63;6.60;;;;;;;;;;5017430;28;21467;-73
2021/07/23 01:10:59;;;;;;;9.05;6.63;;;;;;;;;;5018415;28;20030;-71
2021/07/23 01:13:26;;;;;;;10.32;7.10;;;;;;;;;;5019218;28;20033;-72
2021/07/23 01:15:52;;;;;;;10.43;7.22;;;;;;;;;;5023714;28;20028;-72
2021/07/23 01:18:18;;;;;;;12.55;6.97;;;;;;;;;;5026081;28;20501;-71
2021/07/23 01:20:44;;;;;;;10.80;6.90;;;;;;;;;;5023373;28;20021;-72
2021/07/23 01:23:12;;;;;;;10.88;6.70;;;;;;;;;;5024456;28;20430;-72
2021/07/23 01:25:39;;;;;;;9.02;6.50;;;;;;;;;;5020972;28;20054;-72
2021/07/23 01:28:05;;;;;;;7.60;6.65;;;;;;;;;;5025109;28;20022;-72
2021/07/23 01:30:33;;;;;;;7.57;5.60;;;;;;;;;;5022464;28;20064;-72
2021/07/23 01:32:59;;;;;;;8.90;6.20;;;;;;;;;;5022127;28;20512;-71
2021/07/23 01:35:26;;;;;;;7.40;5.90;;;;;;;;;;5024814;28;20528;-72
2021/07/23 01:37:54;;;;;;;8.98;5.60;;;;;;;;;;5023788;28;20035;-72
2021/07/23 01:40:20;;;;;;;7.90;6.47;;;;;;;;;;5020822;28;20072;-73
2021/07/23 01:42:47;;;;;;;8.63;6.45;;;;;;;;;;5020070;28;20021;-72
2021/07/23 01:45:16;;;;;;;10.60;6.45;;;;;;;;;;5023000;28;20056;-72
2021/07/23 01:47:42;;;;;;;8.65;6.57;;;;;;;;;;5018925;28;20469;-71
2021/07/23 01:50:08;;;;;;;8.00;6.32;;;;;;;;;;5020026;28;20034;-73
2021/07/23 01:52:34;;;;;;;7.65;6.60;;;;;;;;;;5016159;28;20021;-71
2021/07/23 01:55:01;;;;;;;9.25;7.32;;;;;;;;;;5013961;28;20041;-71
2021/07/23 01:57:27;;;;;;;8.40;6.35;;;;;;;;;;5015010;28;20701;-72
2021/07/23 01:59:53;;;;;;;6.63;5.97;;;;;;;;;;5020949;28;20041;-71
2021/07/23 02:02:19;;;;;;;6.78;5.75;;;;;;;;;;5007775;28;20026;-73
2021/07/23 02:04:45;;;;;;;9.27;6.45;;;;;;;;;;5018784;28;20024;-72
2021/07/23 02:07:12;;;;;;;8.85;6.35;;;;;;;;;;5019900;28;20034;-71
2021/07/23 02:09:38;;;;;;;7.88;6.45;;;;;;;;;;5011193;28;20634;-72
2021/07/23 02:12:04;;;;;;;6.65;5.93;;;;;;;;;;5015742;28;20048;-72
2021/07/23 02:14:30;;;;;;;6.80;6.20;;;;;;;;;;5019817;28;20029;-72
2021/07/23 02:16:57;;;;;;;7.72;6.00;;;;;;;;;;5018268;28;20024;-71
2021/07/23 02:19:23;;;;;;;6.30;5.70;;;;;;;;;;5021007;28;20042;-72
2021/07/23 02:21:50;;;;;;;7.05;6.00;;;;;;;;;;5019573;28;20026;-72
2021/07/23 02:24:16;;;;;;;8.07;5.65;;;;;;;;;;5021539;28;20033;-71
2021/07/23 02:26:42;;;;;;;7.55;6.85;;;;;;;;;;5014632;28;20072;-71
2021/07/23 02:29:08;;;;;;;9.02;6.43;;;;;;;;;;5017563;28;20025;-72
2021/07/23 02:31:34;;;;;;;9.43;7.40;;;;;;;;;;5024493;28;20075;-71
2021/07/23 02:34:00;;;;;;;9.05;6.50;;;;;;;;;;5015893;28;20029;-71
2021/07/23 02:36:26;;;;;;;6.78;6.07;;;;;;;;;;5022128;28;20033;-72
2021/07/23 02:38:53;;;;;;;7.05;6.13;;;;;;;;;;5014535;28;20114;-72
2021/07/23 02:41:19;;;;;;;10.25;6.85;;;;;;;;;;5018136;28;20067;-73
2021/07/23 02:43:48;;;;;;;8.32;7.00;;;;;;;;;;5010789;28;20030;-71
2021/07/23 02:46:14;;;;;;;7.50;6.80;;;;;;;;;;5015809;28;20041;-71
2021/07/23 02:48:40;;;;;;;7.07;6.40;;;;;;;;;;5010355;28;20030;-72
2021/07/23 02:51:06;;;;;;;10.82;7.15;;;;;;;;;;5015812;28;20025;-71
2021/07/23 02:53:33;;;;;;;8.63;6.80;;;;;;;;;;5008543;28;20040;-72
2021/07/23 02:55:59;;;;;;;8.65;6.93;;;;;;;;;;5015680;28;20094;-71
2021/07/23 02:58:25;;;;;;;7.68;6.95;;;;;;;;;;5017389;28;20075;-72
2021/07/23 03:00:51;;;;;;;7.93;7.13;;;;;;;;;;5018042;28;20029;-71
2021/07/23 03:03:17;;;;;;;12.65;7.25;;;;;;;;;;5010268;28;20035;-72
2021/07/23 03:05:43;;;;;;;7.25;6.55;;;;;;;;;;5016065;28;20043;-71
2021/07/23 03:08:09;;;;;;;9.75;7.38;;;;;;;;;;5016605;28;20037;-72
2021/07/23 03:10:36;;;;;;;8.45;7.60;;;;;;;;;;5019177;28;20117;-72
2021/07/23 03:13:02;;;;;;;9.00;7.43;;;;;;;;;;5016239;28;20025;-71
2021/07/23 03:15:28;;;;;;;11.38;7.22;;;;;;;;;;5019194;28;20115;-72
2021/07/23 03:17:54;;;;;;;8.45;7.25;;;;;;;;;;5018039;28;20065;-72
2021/07/23 03:20:20;;;;;;;11.88;7.80;;;;;;;;;;5018650;28;20021;-72
2021/07/23 03:22:47;;;;;;;11.13;7.63;;;;;;;;;;5013084;28;20022;-72
2021/07/23 03:25:13;;;;;;;11.88;7.13;;;;;;;;;;5016085;28;20021;-72
2021/07/23 03:27:39;;;;;;;9.65;7.68;;;;;;;;;;5020802;28;20043;-72
2021/07/23 03:30:06;;;;;;;9.93;7.00;;;;;;;;;;5020070;28;20124;-72
2021/07/23 03:32:32;;;;;;;11.65;7.35;;;;;;;;;;5019562;28;20376;-72
2021/07/23 03:34:59;;;;;;;9.70;7.20;;;;;;;;;;5017550;28;20021;-72
2021/07/23 03:37:25;;;;;;;10.35;7.03;;;;;;;;;;5020284;28;20481;-71
2021/07/23 03:39:51;;;;;;;12.05;7.47;;;;;;;;;;5023806;28;20041;-71
2021/07/23 03:42:17;;;;;;;8.55;7.20;;;;;;;;;;5026911;28;20097;-71
2021/07/23 03:44:43;;;;;;;7.55;6.80;;;;;;;;;;5024284;28;20026;-71
2021/07/23 03:47:10;;;;;;;8.75;6.85;;;;;;;;;;5022556;28;20626;-72
2021/07/23 03:49:36;;;;;;;9.13;7.45;;;;;;;;;;5025007;28;20030;-72
2021/07/23 03:52:02;;;;;;;11.38;7.40;;;;;;;;;;5015850;28;20478;-72
2021/07/23 03:54:28;;;;;;;8.50;7.65;;;;;;;;;;5013915;28;20402;-72
2021/07/23 03:56:54;;;;;;;8.48;7.68;;;;;;;;;;5017770;28;20060;-72
2021/07/23 03:59:21;;;;;;;9.32;7.70;;;;;;;;;;5018264;28;20584;-72
2021/07/23 04:01:47;;;;;;;8.43;7.63;;;;;;;;;;5015433;28;20084;-72
2021/07/23 04:04:13;;;;;;;12.82;8.20;;;;;;;;;;5016311;28;20117;-71
2021/07/23 04:06:40;;;;;;;11.82;8.52;;;;;;;;;;5016289;28;20033;-72
2021/07/23 04:09:06;;;;;;;12.40;8.18;;;;;;;;;;5023528;28;20032;-71
2021/07/23 04:11:48;;;;;;;9.63;8.30;;;;;;;;;;5025656;28;20022;-72
2021/07/23 04:14:14;;;;;;;9.85;8.23;;;;;;;;;;5023694;28;20101;-72
2021/07/23 04:16:40;;;;;;;13.85;7.93;;;;;;;;;;5025746;28;20417;-72
2021/07/23 04:19:06;;;;;;;9.02;8.15;;;;;;;;;;5025495;28;20509;-72
2021/07/23 04:21:33;;;;;;;13.23;9.20;;;;;;;;;;5026058;28;20033;-72
2021/07/23 04:24:02;;;;;;;16.65;8.15;;;;;;;;;;5021548;28;20040;-72
2021/07/23 04:26:29;;;;;;;10.20;8.35;;;;;;;;;;5015728;28;20224;-71
2021/07/23 04:28:56;;;;;;;9.55;8.00;;;;;;;;;;5026147;28;20037;-72
2021/07/23 04:31:22;;;;;;;11.63;8.38;;;;;;;;;;5025450;28;20568;-72
2021/07/23 04:33:48;;;;;;;9.38;8.35;;;;;;;;;;5021231;28;20564;-72
2021/07/23 04:36:14;;;;;;;12.40;8.32;;;;;;;;;;5021908;28;20108;-72
2021/07/23 04:38:40;;;;;;;10.98;8.70;;;;;;;;;;5021522;28;20029;-72
2021/07/23 04:41:06;;;;;;;15.00;8.77;;;;;;;;;;5022536;28;20083;-71
2021/07/23 04:43:32;;;;;;;13.77;8.90;;;;;;;;;;5021629;28;20625;-73
2021/07/23 04:45:59;;;;;;;10.80;8.18;;;;;;;;;;5017493;28;20049;-72
2021/07/23 04:48:25;;;;;;;9.63;7.97;;;;;;;;;;5018181;28;20375;-72
2021/07/23 04:50:51;;;;;;;15.23;8.35;;;;;;;;;;5018327;28;20405;-72
2021/07/23 04:53:18;;;;;;;14.85;9.55;;;;;;;;;;5018148;28;20472;-71
2021/07/23 04:55:49;;;;;;;12.00;8.57;;;;;;;;;;5022240;28;20029;-71
2021/07/23 04:58:16;;;;;;;11.82;8.75;;;;;;;;;;5021043;28;20103;-72
2021/07/23 05:00:44;;;;;;;12.25;9.02;;;;;;;;;;5018389;28;20096;-72
2021/07/23 05:03:11;;;;;;;11.05;8.63;;;;;;;;;;5019020;28;20030;-72
2021/07/23 05:05:43;;;;;;;14.32;8.70;;;;;;;;;;5019757;28;20045;-72
2021/07/23 05:08:10;;;;;;;12.73;9.05;;;;;;;;;;5020406;28;20038;-71
2021/07/23 05:10:36;;;;;;;12.85;8.60;;;;;;;;;;5019900;28;20096;-72
2021/07/23 05:13:05;;;;;;;16.90;9.20;;;;;;;;;;5023450;28;20037;-72
2021/07/23 05:15:32;;;;;;;16.45;9.77;;;;;;;;;;5017191;28;20034;-72
2021/07/23 05:17:58;;;;;;;12.65;8.85;;;;;;;;;;5014762;28;20544;-72
2021/07/23 05:20:25;;;;;;;12.95;9.05;;;;;;;;;;5016883;28;20025;-71
2021/07/23 05:22:51;;;;;;;9.63;8.68;;;;;;;;;;5021505;28;20033;-72
2021/07/23 05:25:17;;;;;;;13.98;9.23;;;;;;;;;;5015462;28;20478;-72
2021/07/23 05:27:43;;;;;;;10.40;8.32;;;;;;;;;;5022750;28;20117;-71
2021/07/23 05:30:10;;;;;;;15.10;9.02;;;;;;;;;;5017294;28;20040;-72
2021/07/23 05:32:36;;;;;;;12.52;9.38;;;;;;;;;;5015893;28;20026;-73
2021/07/23 05:35:02;;;;;;;12.38;9.35;;;;;;;;;;5021887;28;20030;-72
2021/07/23 05:37:28;;;;;;;15.40;9.45;;;;;;;;;;5023052;28;20096;-74
2021/07/23 05:39:54;;;;;;;16.00;9.10;;;;;;;;;;5027014;28;20038;-73
2021/07/23 05:42:20;;;;;;;13.02;9.32;;;;;;;;;;5018190;28;20026;-73
2021/07/23 05:44:47;;;;;;;13.18;9.05;;;;;;;;;;5024997;28;20049;-73
2021/07/23 05:47:13;;;;;;;11.63;9.48;;;;;;;;;;5013451;28;20383;-74
2021/07/23 05:49:39;;;;;;;13.73;8.07;;;;;;;;;;5025155;28;20025;-73
2021/07/23 05:52:06;;;;;;;10.98;7.82;;;;;;;;;;5015364;28;20026;-73
2021/07/23 05:54:32;;;;;;;11.27;8.00;;;;;;;;;;5021083;28;20027;-72
2021/07/23 05:56:58;;;;;;;10.07;8.77;;;;;;;;;;5027659;28;20048;-74
2021/07/23 05:59:25;;;;;;;10.15;8.02;;;;;;;;;;5013287;28;20032;-73
2021/07/23 06:01:51;;;;;;;9.38;7.57;;;;;;;;;;5016104;28;20083;-72
2021/07/23 06:04:17;;;;;;;10.50;7.20;;;;;;;;;;5019959;28;20026;-74
2021/07/23 06:06:43;;;;;;;8.50;7.43;;;;;;;;;;5015116;28;20558;-73
2021/07/23 06:09:09;;;;;;;9.20;7.18;;;;;;;;;;5018500;28;20037;-75
2021/07/23 06:11:38;;;;;;;9.32;7.43;;;;;;;;;;5017545;28;20541;-74
2021/07/23 06:14:05;;;;;;;14.13;8.88;;;;;;;;;;5013306;28;20547;-73
2021/07/23 06:16:32;;;;;;;12.93;8.95;;;;;;;;;;5026835;28;20052;-72
2021/07/23 06:18:58;;;;;;;11.85;8.45;;;;;;;;;;5018799;28;20753;-72
2021/07/23 06:21:24;;;;;;;12.43;7.75;;;;;;;;;;5025944;28;20057;-73
2021/07/23 06:23:50;;;;;;;10.68;7.05;;;;;;;;;;5014325;28;20026;-73
2021/07/23 06:26:17;;;;;;;8.93;6.78;;;;;;;;;;5016043;28;20041;-73
2021/07/23 06:28:48;;;;;;;7.90;7.10;;;;;;;;;;5013615;28;20025;-74
2021/07/23 06:31:15;;;;;;;11.10;7.68;;;;;;;;;;5024591;28;20030;-74
2021/07/23 06:33:41;;;;;;;10.07;7.53;;;;;;;;;;5018604;28;20075;-73
2021/07/23 06:36:07;;;;;;;11.13;7.50;;;;;;;;;;5023459;28;20116;-73
2021/07/23 06:38:33;;;;;;;14.10;6.82;;;;;;;;;;5022625;28;20048;-72
2021/07/23 06:41:00;;;;;;;12.57;7.53;;;;;;;;;;5020790;28;20088;-73
2021/07/23 06:43:29;;;;;;;7.32;6.45;;;;;;;;;;5019345;28;20037;-71
2021/07/23 06:45:56;;;;;;;9.77;6.35;;;;;;;;;;5014851;28;20118;-74
2021/07/23 06:48:22;;;;;;;12.48;7.22;;;;;;;;;;5022669;28;20027;-75
2021/07/23 06:50:49;;;;;;;9.10;6.38;;;;;;;;;;4997817;28;20030;-73
2021/07/23 06:53:15;;;;;;;8.88;7.38;;;;;;;;;;5007436;28;20534;-74
2021/07/23 06:55:42;;;;;;;10.48;7.13;;;;;;;;;;5007335;28;20053;-74
2021/07/23 06:58:08;;;;;;;9.07;6.88;;;;;;;;;;5006383;28;20072;-73
2021/07/23 07:00:34;;;;;;;15.70;7.90;;;;;;;;;;5006967;28;20099;-74
2021/07/23 07:03:01;;;;;;;9.07;6.82;;;;;;;;;;5006911;28;20041;-74
2021/07/23 07:05:28;;;;;;;8.45;7.18;;;;;;;;;;5005534;28;20060;-73
2021/07/23 07:07:54;;;;;;;10.10;6.72;;;;;;;;;;5009881;28;20088;-74
2021/07/23 07:10:20;;;;;;;13.00;7.63;;;;;;;;;;5008572;28;20022;-74
2021/07/23 07:12:47;;;;;;;9.05;7.50;;;;;;;;;;5005301;28;20041;-74
2021/07/23 07:15:13;;;;;;;11.57;8.07;;;;;;;;;;5009622;28;20025;-75
2021/07/23 07:17:39;;;;;;;10.32;7.53;;;;;;;;;;5006048;28;20140;-74
2021/07/23 07:20:05;;;;;;;9.00;7.90;;;;;;;;;;5005367;28;20610;-74
2021/07/23 07:22:32;;;;;;;10.65;7.38;;;;;;;;;;5013062;28;20458;-75
2021/07/23 07:24:58;;;;;;;11.68;8.27;;;;;;;;;;5020617;28;20029;-74
2021/07/23 07:27:24;;;;;;;10.18;7.97;;;;;;;;;;5017536;28;20396;-74
2021/07/23 07:29:50;;;;;;;12.73;7.55;;;;;;;;;;5028180;28;20742;-73
2021/07/23 07:32:16;;;;;;;8.98;7.93;;;;;;;;;;5024124;28;20047;-74
2021/07/23 07:34:42;;;;;;;10.45;8.13;;;;;;;;;;5024981;28;20498;-74
2021/07/23 07:37:09;;;;;;;9.43;8.40;;;;;;;;;;5027167;28;20032;-74
2021/07/23 07:39:35;;;;;;;8.27;7.40;;;;;;;;;;5016635;28;20394;-74
2021/07/23 07:42:02;;;;;;;10.00;8.02;;;;;;;;;;5013821;28;20017;-74
2021/07/23 07:44:29;;;;;;;8.65;7.80;;;;;;;;;;5022794;28;20488;-73
2021/07/23 07:46:55;;;;;;;10.13;7.60;;;;;;;;;;5022962;28;20056;-74
2021/07/23 07:49:21;;;;;;;11.07;7.85;;;;;;;;;;5005561;28;20558;-73
2021/07/23 07:51:47;;;;;;;9.20;7.13;;;;;;;;;;5012131;28;20029;-73
2021/07/23 07:54:14;;;;;;;9.02;7.97;;;;;;;;;;5013808;28;20026;-74
2021/07/23 07:56:40;;;;;;;10.23;8.27;;;;;;;;;;5027317;28;20103;-74
2021/07/23 07:59:08;;;;;;;10.35;7.72;;;;;;;;;;5029362;28;20025;-74
2021/07/23 08:01:34;;;;;;;13.35;8.50;;;;;;;;;;5019209;28;20030;-73
2021/07/23 08:04:00;;;;;;;11.15;8.05;;;;;;;;;;5015058;28;20030;-73
2021/07/23 08:06:32;;;;;;;10.38;8.77;;;;;;;;;;5005483;28;20044;-73
2021/07/23 08:09:04;;;;;;;11.55;7.93;;;;;;;;;;5021842;28;20025;-73
2021/07/23 08:11:31;;;;;;;9.13;8.13;;;;;;;;;;5019318;28;20393;-73
2021/07/23 08:13:57;;;;;;;9.38;8.32;;;;;;;;;;5019932;28;20026;-74
2021/07/23 08:16:24;;;;;;;8.80;7.35;;;;;;;;;;5021216;28;20052;-73
2021/07/23 08:18:50;;;;;;;10.93;8.27;;;;;;;;;;5019378;28;20432;-74
2021/07/23 08:21:16;;;;;;;10.23;6.88;;;;;;;;;;5020155;28;20351;-74
2021/07/23 08:23:42;;;;;;;9.60;7.72;;;;;;;;;;5020615;28;20021;-73
2021/07/23 08:26:08;;;;;;;10.80;7.88;;;;;;;;;;5023274;28;20041;-74
2021/07/23 08:28:36;;;;;;;11.77;7.18;;;;;;;;;;5024687;28;20045;-73
2021/07/23 08:31:02;;;;;;;10.73;7.60;;;;;;;;;;5024592;28;20025;-73
2021/07/23 08:33:28;;;;;;;11.70;7.78;;;;;;;;;;5023675;28;20025;-74
2021/07/23 08:35:55;;;;;;;12.55;8.27;;;;;;;;;;5023954;28;20029;-74
2021/07/23 08:38:21;;;;;;;10.60;7.40;;;;;;;;;;5024699;28;20296;-74
2021/07/23 08:40:47;;;;;;;9.73;7.80;;;;;;;;;;5024332;28;20562;-73
2021/07/23 08:43:14;;;;;;;8.23;7.38;;;;;;;;;;5022904;28;20022;-73
2021/07/23 08:45:40;;;;;;;10.50;7.18;;;;;;;;;;5024268;28;20038;-73
2021/07/23 08:48:07;;;;;;;8.70;7.50;;;;;;;;;;5024065;28;20029;-73
2021/07/23 08:50:33;;;;;;;8.73;7.20;;;;;;;;;;5024465;28;20022;-73
2021/07/23 08:53:00;;;;;;;8.40;7.50;;;;;;;;;;5024164;28;20037;-73
2021/07/23 08:55:28;;;;;;;13.25;8.75;;;;;;;;;;5025430;28;20037;-74
2021/07/23 08:57:54;;;;;;;9.00;7.82;;;;;;;;;;5026078;28;20269;-75
2021/07/23 09:00:21;;;;;;;10.07;7.88;;;;;;;;;;5011505;28;20057;-74
2021/07/23 09:03:01;;;;;;;9.73;7.68;;;;;;;;;;5015172;28;20132;-74
2021/07/23 09:05:27;;;;;;;15.13;7.95;;;;;;;;;;5023207;28;20071;-73
2021/07/23 09:07:53;;;;;;;10.52;8.35;;;;;;;;;;5013604;28;20381;-73
2021/07/23 09:10:23;;;;;;;8.68;7.72;;;;;;;;;;5024364;28;20017;-74
2021/07/23 09:12:50;;;;;;;12.18;8.95;;;;;;;;;;5023472;28;20436;-74
2021/07/23 09:15:22;;;;;;;9.90;7.53;;;;;;;;;;5023915;28;20552;-73
2021/07/23 09:17:49;;;;;;;10.30;8.18;;;;;;;;;;5023291;28;20444;-73
2021/07/23 09:20:16;;;;;;;10.32;7.57;;;;;;;;;;5024178;28;20155;-74
2021/07/23 09:22:49;;;;;;;9.30;7.75;;;;;;;;;;5021002;28;20060;-73
2021/07/23 09:25:15;;;;;;;8.07;7.07;;;;;;;;;;5023919;28;20104;-73
2021/07/23 09:27:42;;;;;;;8.60;7.80;;;;;;;;;;5023419;28;20038;-74
2021/07/23 09:30:10;;;;;;;10.43;8.23;;;;;;;;;;5023809;28;20413;-73
2021/07/23 09:32:37;;;;;;;9.82;7.28;;;;;;;;;;5023715;28;20104;-73
2021/07/23 09:35:09;;;;;;;8.10;7.32;;;;;;;;;;5023261;28;20156;-73
2021/07/23 09:37:54;;;;;;;9.10;7.70;;;;;;;;;;5022775;28;20033;-74
2021/07/23 09:40:21;;;;;;;11.43;8.52;;;;;;;;;;5011563;28;20417;-74
2021/07/23 09:42:55;;;;;;;9.05;7.57;;;;;;;;;;5023367;28;20094;-73
2021/07/23 09:45:27;;;;;;;7.90;6.90;;;;;;;;;;5022190;28;20029;-73
2021/07/23 09:47:54;;;;;;;9.18;7.78;;;;;;;;;;5023281;28;20033;-74
2021/07/23 09:50:21;;;;;;;9.70;8.23;;;;;;;;;;5023327;28;20033;-73
2021/07/23 09:52:48;;;;;;;8.10;7.30;;;;;;;;;;5023642;28;20029;-73
2021/07/23 09:55:14;;;;;;;8.23;7.30;;;;;;;;;;5023361;28;20802;-74
2021/07/23 09:57:43;;;;;;;9.90;7.45;;;;;;;;;;5022020;28;20029;-74
2021/07/23 10:00:12;;;;;;;9.25;7.30;;;;;;;;;;5021943;28;20556;-75
2021/07/23 10:02:43;;;;;;;7.90;7.10;;;;;;;;;;5022484;28;20033;-76
2021/07/23 10:05:13;;;;;;;15.02;7.88;;;;;;;;;;5018092;28;20045;-75
2021/07/23 10:07:39;;;;;;;12.38;8.27;;;;;;;;;;5023203;28;20094;-73
2021/07/23 10:10:08;;;;;;;7.38;6.78;;;;;;;;;;5022601;28;20025;-73
2021/07/23 10:12:36;;;;;;;7.25;6.55;;;;;;;;;;5021014;28;20496;-73
2021/07/23 10:15:03;;;;;;;8.45;6.95;;;;;;;;;;5005643;28;20029;-72
2021/07/23 10:17:29;;;;;;;7.38;6.43;;;;;;;;;;5025787;28;20033;-73
2021/07/23 10:19:57;;;;;;;7.22;6.53;;;;;;;;;;5014143;28;20037;-73
2021/07/23 10:22:25;;;;;;;11.02;6.97;;;;;;;;;;5017350;28;20106;-73
2021/07/23 10:24:51;;;;;;;8.80;6.53;;;;;;;;;;5023086;28;20036;-73
2021/07/23 10:27:17;;;;;;;8.20;6.60;;;;;;;;;;5022023;28;20048;-73
2021/07/23 10:29:44;;;;;;;7.32;6.53;;;;;;;;;;5023513;28;20574;-74
2021/07/23 10:32:25;;;;;;;10.27;6.38;;;;;;;;;;5019693;28;20025;-74
2021/07/23 10:34:52;;;;;;;7.13;6.40;;;;;;;;;;5018685;28;20108;-73
2021/07/23 10:37:48;;;;;;;8.35;6.78;;;;;;;;;;5011603;28;20033;-73
2021/07/23 10:40:14;;;;;;;8.02;6.93;;;;;;;;;;5008705;28;20083;-75
2021/07/23 10:42:43;;;;;;;6.40;5.78;;;;;;;;;;5011956;28;20025;-75
2021/07/23 10:45:19;;;;;;;9.05;5.82;;;;;;;;;;5021882;28;20030;-73
2021/07/23 10:47:46;;;;;;;6.90;6.20;;;;;;;;;;5020458;28;20041;-73
2021/07/23 10:50:35;;;;;;;6.85;6.25;;;;;;;;;;5014339;28;20101;-76
2021/07/23 10:53:20;;;;;;;6.00;5.50;;;;;;;;;;5006565;28;20034;-74
2021/07/23 10:55:46;;;;;;;6.47;5.80;;;;;;;;;;5011765;28;20122;-76
2021/07/23 10:58:12;;;;;;;7.07;5.82;;;;;;;;;;5014644;28;20547;-76
2021/07/23 11:00:47;;;;;;;6.78;5.90;;;;;;;;;;5016445;28;20056;-76
2021/07/23 11:03:32;;;;;;;8.38;6.28;;;;;;;;;;5021806;28;20022;-74
2021/07/23 11:05:58;;;;;;;6.97;5.70;;;;;;;;;;5014987;28;20041;-74
2021/07/23 11:08:24;;;;;;;6.78;5.60;;;;;;;;;;5014267;28;20018;-78
2021/07/23 11:10:54;;;;;;;7.35;5.55;;;;;;;;;;5017096;28;20883;-74
2021/07/23 11:13:20;;;;;;;7.68;5.38;;;;;;;;;;5015241;28;20038;-73
2021/07/23 11:15:46;;;;;;;8.85;5.28;;;;;;;;;;5019728;28;20075;-77
2021/07/23 11:18:15;;;;;;;6.03;5.50;;;;;;;;;;5021035;28;20037;-74
2021/07/23 11:20:42;;;;;;;8.13;5.97;;;;;;;;;;5015995;28;20032;-75
2021/07/23 11:23:12;;;;;;;9.57;6.20;;;;;;;;;;5014094;28;20017;-73
2021/07/23 11:25:39;;;;;;;6.07;5.47;;;;;;;;;;5011580;28;20094;-74
2021/07/23 11:28:08;;;;;;;10.93;6.47;;;;;;;;;;5019612;28;20098;-73
2021/07/23 11:30:35;;;;;;;7.63;6.43;;;;;;;;;;5018426;28;20030;-73
2021/07/23 11:33:03;;;;;;;5.93;5.43;;;;;;;;;;5022567;28;20037;-74
2021/07/23 11:35:31;;;;;;;7.30;5.63;;;;;;;;;;5019500;28;20010;-73
2021/07/23 11:37:57;;;;;;;6.50;5.90;;;;;;;;;;5021820;28;20095;-74
2021/07/23 11:40:24;;;;;;;6.22;5.63;;;;;;;;;;5020740;28;20025;-73
2021/07/23 11:42:52;;;;;;;7.55;5.78;;;;;;;;;;5023712;28;20677;-73
2021/07/23 11:45:20;;;;;;;6.55;5.93;;;;;;;;;;5020894;28;20103;-74
2021/07/23 11:47:48;;;;;;;5.75;5.25;;;;;;;;;;5022363;28;20029;-73
2021/07/23 11:50:27;;;;;;;7.63;6.43;;;;;;;;;;5026870;28;20021;-73
2021/07/23 11:53:01;;;;;;;6.38;5.45;;;;;;;;;;5020105;28;20592;-73
2021/07/23 11:55:38;;;;;;;9.15;6.70;;;;;;;;;;5018590;28;20037;-74
2021/07/23 11:58:04;;;;;;;7.18;6.45;;;;;;;;;;5020391;28;20034;-72
2021/07/23 12:00:30;;;;;;;7.95;5.85;;;;;;;;;;5023724;28;20029;-73
2021/07/23 12:02:57;;;;;;;9.55;6.53;;;;;;;;;;5026736;28;20114;-73
2021/07/23 12:05:24;;;;;;;6.65;5.95;;;;;;;;;;5030603;28;20037;-75
2021/07/23 12:08:00;;;;;;;6.47;5.68;;;;;;;;;;5024831;28;20098;-73
2021/07/23 12:10:27;;;;;;;6.65;5.95;;;;;;;;;;5025193;28;20702;-74
2021/07/23 12:12:55;;;;;;;6.80;6.10;;;;;;;;;;5021226;28;20017;-73
2021/07/23 12:15:21;;;;;;;7.10;6.00;;;;;;;;;;5024526;28;20025;-73
2021/07/23 12:17:51;;;;;;;6.50;5.85;;;;;;;;;;5024423;28;20064;-73
2021/07/23 12:20:26;;;;;;;6.72;6.13;;;;;;;;;;5023920;28;20029;-73
2021/07/23 12:22:59;;;;;;;7.03;5.72;;;;;;;;;;5022659;28;20039;-74
2021/07/23 12:25:29;;;;;;;6.38;5.78;;;;;;;;;;5024155;28;20048;-73
2021/07/23 12:28:10;;;;;;;7.00;6.30;;;;;;;;;;5024024;28;20394;-74
2021/07/23 12:30:37;;;;;;;6.60;6.00;;;;;;;;;;5023885;28;20026;-73
2021/07/23 12:33:11;;;;;;;7.22;5.70;;;;;;;;;;5022006;28;20150;-73
2021/07/23 12:35:37;;;;;;;8.05;6.03;;;;;;;;;;5023520;28;20021;-74
2021/07/23 12:38:07;;;;;;;8.50;6.50;;;;;;;;;;5018970;28;20144;-73
2021/07/23 12:40:43;;;;;;;7.53;6.20;;;;;;;;;;5022437;28;20055;-73
2021/07/23 12:43:13;;;;;;;6.22;5.10;;;;;;;;;;5022912;28;20025;-73
2021/07/23 12:45:39;;;;;;;6.68;6.00;;;;;;;;;;5008826;28;20010;-73
2021/07/23 12:48:12;;;;;;;8.15;5.85;;;;;;;;;;5011579;28;20026;-73
2021/07/23 12:50:40;;;;;;;6.40;5.80;;;;;;;;;;5018488;28;20091;-73
2021/07/23 12:53:06;;;;;;;7.18;6.40;;;;;;;;;;5006561;28;20382;-73
2021/07/23 12:55:32;;;;;;;5.95;4.82;;;;;;;;;;5014427;28;20122;-74
2021/07/23 12:57:59;;;;;;;5.82;5.28;;;;;;;;;;5016956;28;20025;-75
2021/07/23 13:00:27;;;;;;;6.88;6.18;;;;;;;;;;5016877;28;20131;-73
2021/07/23 13:02:53;;;;;;;6.78;5.70;;;;;;;;;;5014690;28;20111;-77
2021/07/23 13:05:23;;;;;;;6.35;5.75;;;;;;;;;;5015168;28;20032;-74
2021/07/23 13:07:50;;;;;;;6.10;5.50;;;;;;;;;;5008995;28;20045;-74
2021/07/23 13:10:17;;;;;;;6.47;5.88;;;;;;;;;;5011100;28;20021;-74
2021/07/23 13:12:45;;;;;;;6.22;5.63;;;;;;;;;;5009293;28;20025;-73
2021/07/23 13:15:11;;;;;;;8.90;5.72;;;;;;;;;;5013403;28;20083;-73
2021/07/23 13:17:37;;;;;;;6.10;5.50;;;;;;;;;;5009634;28;20037;-73
2021/07/23 13:20:06;;;;;;;5.82;5.22;;;;;;;;;;5023159;28;20389;-73
2021/07/23 13:22:34;;;;;;;6.15;5.18;;;;;;;;;;5026653;28;20026;-72
2021/07/23 13:25:00;;;;;;;7.65;5.63;;;;;;;;;;5025321;28;20060;-73
2021/07/23 13:27:26;;;;;;;6.57;5.72;;;;;;;;;;5024085;28;20052;-73
2021/07/23 13:29:52;;;;;;;8.38;5.90;;;;;;;;;;5026699;28;20018;-74
2021/07/23 13:32:18;;;;;;;7.25;6.38;;;;;;;;;;5025394;28;20029;-73
2021/07/23 13:34:44;;;;;;;6.57;5.90;;;;;;;;;;5027049;28;20859;-73
2021/07/23 13:37:18;;;;;;;7.10;5.63;;;;;;;;;;5023501;28;20032;-73
2021/07/23 13:39:50;;;;;;;6.85;5.97;;;;;;;;;;5026927;28;20025;-75
2021/07/23 13:42:18;;;;;;;6.35;5.47;;;;;;;;;;5024273;28;20029;-73
2021/07/23 13:44:45;;;;;;;6.45;5.40;;;;;;;;;;5025351;28;20452;-73
2021/07/23 13:47:11;;;;;;;6.20;5.60;;;;;;;;;;5024606;28;20623;-73
2021/07/23 13:49:37;;;;;;;7.93;5.50;;;;;;;;;;5024977;28;20017;-73
2021/07/23 13:52:03;;;;;;;5.78;5.18;;;;;;;;;;5026617;28;20079;-74
2021/07/23 13:54:29;;;;;;;6.20;5.03;;;;;;;;;;5024724;28;20075;-74
2021/07/23 13:56:56;;;;;;;5.82;5.20;;;;;;;;;;5019179;28;20034;-73
2021/07/23 13:59:22;;;;;;;6.53;5.88;;;;;;;;;;5013918;28;20113;-73
2021/07/23 14:01:48;;;;;;;5.93;5.32;;;;;;;;;;5021680;28;20039;-72
2021/07/23 14:04:15;;;;;;;5.95;5.20;;;;;;;;;;5013241;28;20037;-73
2021/07/23 14:06:41;;;;;;;5.38;4.65;;;;;;;;;;5015733;28;20480;-74
2021/07/23 14:09:07;;;;;;;6.55;5.85;;;;;;;;;;5014700;28;20018;-73
2021/07/23 14:11:33;;;;;;;6.57;5.78;;;;;;;;;;5017688;28;20454;-73
2021/07/23 14:13:59;;;;;;;6.22;5.53;;;;;;;;;;5019483;28;20192;-73
2021/07/23 14:16:25;;;;;;;6.38;5.18;;;;;;;;;;5017203;28;20021;-73
2021/07/23 14:18:52;;;;;;;8.73;5.43;;;;;;;;;;5019263;28;20044;-73
2021/07/23 14:21:21;;;;;;;6.55;4.90;;;;;;;;;;5018592;28;20393;-73
2021/07/23 14:23:47;;;;;;;5.93;5.43;;;;;;;;;;5018991;28;20369;-73
2021/07/23 14:26:14;;;;;;;7.32;5.35;;;;;;;;;;5022103;28;20025;-73
2021/07/23 14:28:40;;;;;;;8.73;5.45;;;;;;;;;;5021319;28;20022;-73
2021/07/23 14:31:06;;;;;;;5.00;4.50;;;;;;;;;;5022043;28;20026;-73
2021/07/23 14:33:32;;;;;;;5.80;5.30;;;;;;;;;;5017724;28;20022;-73
2021/07/23 14:36:00;;;;;;;5.85;5.25;;;;;;;;;;5018169;28;20113;-74
2021/07/23 14:38:26;;;;;;;5.50;4.95;;;;;;;;;;5008771;28;20080;-78